sensor_id;sensor_type;location;lat;lon;timestamp;P1;durP1;ratioP1;P2;durP2;ratioP2
46288;SDS011;63105;46.158;14.604;2023-02-28T00:00:02;9.70;;;6.45;;
46288;SDS011;63105;46.158;14.604;2023-02-28T00:02:34;9.73;;;6.50;;
46288;SDS011;63105;46.158;14.604;2023-02-28T00:04:59;10.13;;;6.57;;
46288;SDS011;63105;46.158;14.604;2023-02-28T00:07:26;9.55;;;6.38;;
46288;SDS011;63105;46.158;14.604;2023-02-28T00:09:51;12.23;;;6.88;;
46288;SDS011;63105;46.158;14.604;2023-02-28T00:12:16;11.10;;;6.50;;
46288;SDS011;63105;46.158;14.604;2023-02-28T00:14:41;9.13;;;5.95;;
46288;SDS011;63105;46.158;14.604;2023-02-28T00:17:07;10.88;;;6.78;;
46288;SDS011;63105;46.158;14.604;2023-02-28T00:19:32;9.43;;;6.15;;
46288;SDS011;63105;46.158;14.604;2023-02-28T00:21:57;11.45;;;6.45;;
46288;SDS011;63105;46.158;14.604;2023-02-28T00:24:22;9.07;;;6.25;;
46288;SDS011;63105;46.158;14.604;2023-02-28T00:26:47;8.98;;;6.03;;
46288;SDS011;63105;46.158;14.604;2023-02-28T00:29:13;9.27;;;6.10;;
46288;SDS011;63105;46.158;14.604;2023-02-28T00:31:38;9.35;;;6.22;;
46288;SDS011;63105;46.158;14.604;2023-02-28T00:34:03;8.43;;;6.10;;
46288;SDS011;63105;46.158;14.604;2023-02-28T00:36:28;10.90;;;6.57;;
46288;SDS011;63105;46.158;14.604;2023-02-28T00:38:54;10.70;;;6.20;;
46288;SDS011;63105;46.158;14.604;2023-02-28T00:41:19;9.10;;;6.35;;
46288;SDS011;63105;46.158;14.604;2023-02-28T00:43:44;9.20;;;6.03;;
46288;SDS011;63105;46.158;14.604;2023-02-28T00:46:09;9.73;;;6.10;;
46288;SDS011;63105;46.158;14.604;2023-02-28T00:48:35;9.30;;;6.20;;
46288;SDS011;63105;46.158;14.604;2023-02-28T00:51:00;8.32;;;5.70;;
46288;SDS011;63105;46.158;14.604;2023-02-28T00:53:26;9.07;;;5.63;;
46288;SDS011;63105;46.158;14.604;2023-02-28T00:55:51;9.07;;;6.15;;
46288;SDS011;63105;46.158;14.604;2023-02-28T00:58:16;10.80;;;6.05;;
46288;SDS011;63105;46.158;14.604;2023-02-28T01:00:41;10.18;;;6.60;;
46288;SDS011;63105;46.158;14.604;2023-02-28T01:03:07;10.30;;;6.13;;
46288;SDS011;63105;46.158;14.604;2023-02-28T01:05:32;9.25;;;6.10;;
46288;SDS011;63105;46.158;14.604;2023-02-28T01:07:57;10.82;;;6.40;;
46288;SDS011;63105;46.158;14.604;2023-02-28T01:10:22;9.05;;;5.75;;
46288;SDS011;63105;46.158;14.604;2023-02-28T01:12:48;9.60;;;6.28;;
46288;SDS011;63105;46.158;14.604;2023-02-28T01:15:13;8.95;;;6.22;;
46288;SDS011;63105;46.158;14.604;2023-02-28T01:17:38;8.77;;;5.95;;
46288;SDS011;63105;46.158;14.604;2023-02-28T01:20:03;10.60;;;6.68;;
46288;SDS011;63105;46.158;14.604;2023-02-28T01:22:29;8.73;;;6.00;;
46288;SDS011;63105;46.158;14.604;2023-02-28T01:24:54;9.25;;;6.13;;
46288;SDS011;63105;46.158;14.604;2023-02-28T01:27:19;10.00;;;6.57;;
46288;SDS011;63105;46.158;14.604;2023-02-28T01:29:45;9.38;;;6.55;;
46288;SDS011;63105;46.158;14.604;2023-02-28T01:32:10;10.07;;;6.30;;
46288;SDS011;63105;46.158;14.604;2023-02-28T01:34:35;8.80;;;6.45;;
46288;SDS011;63105;46.158;14.604;2023-02-28T01:37:00;8.73;;;6.30;;
46288;SDS011;63105;46.158;14.604;2023-02-28T01:39:26;9.43;;;6.68;;
46288;SDS011;63105;46.158;14.604;2023-02-28T01:41:52;11.25;;;6.85;;
46288;SDS011;63105;46.158;14.604;2023-02-28T01:47:02;11.13;;;6.82;;
46288;SDS011;63105;46.158;14.604;2023-02-28T01:49:27;9.15;;;6.10;;
46288;SDS011;63105;46.158;14.604;2023-02-28T01:51:53;9.27;;;5.95;;
46288;SDS011;63105;46.158;14.604;2023-02-28T01:54:21;10.23;;;6.57;;
46288;SDS011;63105;46.158;14.604;2023-02-28T01:56:48;9.90;;;6.80;;
46288;SDS011;63105;46.158;14.604;2023-02-28T01:59:18;11.43;;;6.85;;
46288;SDS011;63105;46.158;14.604;2023-02-28T02:01:46;10.68;;;6.45;;
46288;SDS011;63105;46.158;14.604;2023-02-28T02:04:11;10.43;;;6.57;;
46288;SDS011;63105;46.158;14.604;2023-02-28T02:06:38;9.82;;;7.07;;
46288;SDS011;63105;46.158;14.604;2023-02-28T02:09:04;9.23;;;6.20;;
46288;SDS011;63105;46.158;14.604;2023-02-28T02:11:29;9.60;;;6.70;;
46288;SDS011;63105;46.158;14.604;2023-02-28T02:22:18;10.38;;;6.60;;
46288;SDS011;63105;46.158;14.604;2023-02-28T02:35:26;10.07;;;6.88;;
46288;SDS011;63105;46.158;14.604;2023-02-28T02:40:19;9.07;;;6.47;;
46288;SDS011;63105;46.158;14.604;2023-02-28T02:45:12;9.88;;;6.55;;
46288;SDS011;63105;46.158;14.604;2023-02-28T02:47:38;9.70;;;6.85;;
46288;SDS011;63105;46.158;14.604;2023-02-28T02:50:08;9.02;;;6.40;;
46288;SDS011;63105;46.158;14.604;2023-02-28T02:52:41;9.15;;;6.50;;
46288;SDS011;63105;46.158;14.604;2023-02-28T02:55:07;9.80;;;6.82;;
46288;SDS011;63105;46.158;14.604;2023-02-28T02:57:41;10.65;;;6.88;;
46288;SDS011;63105;46.158;14.604;2023-02-28T03:00:10;9.80;;;6.65;;
46288;SDS011;63105;46.158;14.604;2023-02-28T03:02:36;10.13;;;7.30;;
46288;SDS011;63105;46.158;14.604;2023-02-28T03:05:06;10.15;;;7.05;;
46288;SDS011;63105;46.158;14.604;2023-02-28T03:07:33;10.48;;;7.30;;
46288;SDS011;63105;46.158;14.604;2023-02-28T03:09:58;10.20;;;6.90;;
46288;SDS011;63105;46.158;14.604;2023-02-28T03:12:27;10.57;;;7.40;;
46288;SDS011;63105;46.158;14.604;2023-02-28T03:20:15;10.07;;;6.50;;
46288;SDS011;63105;46.158;14.604;2023-02-28T03:30:23;8.90;;;6.55;;
46288;SDS011;63105;46.158;14.604;2023-02-28T03:32:55;10.40;;;6.80;;
46288;SDS011;63105;46.158;14.604;2023-02-28T03:35:23;11.52;;;6.88;;
46288;SDS011;63105;46.158;14.604;2023-02-28T03:37:50;10.00;;;6.95;;
46288;SDS011;63105;46.158;14.604;2023-02-28T03:40:19;9.32;;;6.95;;
46288;SDS011;63105;46.158;14.604;2023-02-28T03:42:45;9.50;;;6.20;;
46288;SDS011;63105;46.158;14.604;2023-02-28T03:45:16;10.43;;;6.45;;
46288;SDS011;63105;46.158;14.604;2023-02-28T03:47:51;10.10;;;6.43;;
46288;SDS011;63105;46.158;14.604;2023-02-28T03:50:27;10.13;;;7.25;;
46288;SDS011;63105;46.158;14.604;2023-02-28T03:52:57;9.50;;;6.70;;
46288;SDS011;63105;46.158;14.604;2023-02-28T03:55:26;9.13;;;6.60;;
46288;SDS011;63105;46.158;14.604;2023-02-28T03:57:56;9.77;;;6.57;;
46288;SDS011;63105;46.158;14.604;2023-02-28T04:00:44;9.85;;;6.60;;
46288;SDS011;63105;46.158;14.604;2023-02-28T04:03:10;13.40;;;7.57;;
46288;SDS011;63105;46.158;14.604;2023-02-28T04:05:45;9.93;;;6.60;;
46288;SDS011;63105;46.158;14.604;2023-02-28T04:08:11;10.15;;;6.88;;
46288;SDS011;63105;46.158;14.604;2023-02-28T04:10:36;9.52;;;6.95;;
46288;SDS011;63105;46.158;14.604;2023-02-28T04:13:02;8.70;;;6.13;;
46288;SDS011;63105;46.158;14.604;2023-02-28T04:15:27;10.65;;;6.70;;
46288;SDS011;63105;46.158;14.604;2023-02-28T04:17:53;11.05;;;7.53;;
46288;SDS011;63105;46.158;14.604;2023-02-28T04:20:18;11.02;;;7.38;;
46288;SDS011;63105;46.158;14.604;2023-02-28T04:22:43;9.82;;;6.93;;
46288;SDS011;63105;46.158;14.604;2023-02-28T04:25:09;10.93;;;6.85;;
46288;SDS011;63105;46.158;14.604;2023-02-28T04:27:34;12.02;;;7.28;;
46288;SDS011;63105;46.158;14.604;2023-02-28T04:29:59;9.95;;;6.45;;
46288;SDS011;63105;46.158;14.604;2023-02-28T04:32:25;10.07;;;7.13;;
46288;SDS011;63105;46.158;14.604;2023-02-28T04:34:50;9.75;;;6.47;;
46288;SDS011;63105;46.158;14.604;2023-02-28T04:37:15;11.90;;;7.55;;
46288;SDS011;63105;46.158;14.604;2023-02-28T04:39:41;10.55;;;7.07;;
46288;SDS011;63105;46.158;14.604;2023-02-28T04:42:06;10.18;;;7.10;;
46288;SDS011;63105;46.158;14.604;2023-02-28T04:44:31;9.90;;;6.85;;
46288;SDS011;63105;46.158;14.604;2023-02-28T04:46:57;10.40;;;6.85;;
46288;SDS011;63105;46.158;14.604;2023-02-28T04:49:22;10.93;;;7.03;;
46288;SDS011;63105;46.158;14.604;2023-02-28T04:51:47;12.13;;;7.63;;
46288;SDS011;63105;46.158;14.604;2023-02-28T04:54:14;11.15;;;6.93;;
46288;SDS011;63105;46.158;14.604;2023-02-28T04:56:41;10.38;;;6.85;;
46288;SDS011;63105;46.158;14.604;2023-02-28T04:59:06;10.60;;;6.95;;
46288;SDS011;63105;46.158;14.604;2023-02-28T05:01:32;13.32;;;7.60;;
46288;SDS011;63105;46.158;14.604;2023-02-28T05:03:58;9.73;;;6.82;;
46288;SDS011;63105;46.158;14.604;2023-02-28T05:06:25;11.82;;;7.82;;
46288;SDS011;63105;46.158;14.604;2023-02-28T05:08:50;10.65;;;7.22;;
46288;SDS011;63105;46.158;14.604;2023-02-28T05:11:18;11.50;;;7.28;;
46288;SDS011;63105;46.158;14.604;2023-02-28T05:13:43;10.27;;;7.25;;
46288;SDS011;63105;46.158;14.604;2023-02-28T05:16:08;11.57;;;7.32;;
46288;SDS011;63105;46.158;14.604;2023-02-28T05:18:34;9.57;;;6.40;;
46288;SDS011;63105;46.158;14.604;2023-02-28T05:20:59;10.07;;;7.25;;
46288;SDS011;63105;46.158;14.604;2023-02-28T05:23:27;10.63;;;7.15;;
46288;SDS011;63105;46.158;14.604;2023-02-28T05:25:52;12.23;;;7.15;;
46288;SDS011;63105;46.158;14.604;2023-02-28T05:28:17;10.43;;;7.47;;
46288;SDS011;63105;46.158;14.604;2023-02-28T05:30:44;11.52;;;7.00;;
46288;SDS011;63105;46.158;14.604;2023-02-28T05:33:10;10.38;;;7.00;;
46288;SDS011;63105;46.158;14.604;2023-02-28T05:35:37;9.85;;;6.80;;
46288;SDS011;63105;46.158;14.604;2023-02-28T05:38:03;11.98;;;7.88;;
46288;SDS011;63105;46.158;14.604;2023-02-28T05:40:28;11.43;;;7.90;;
46288;SDS011;63105;46.158;14.604;2023-02-28T05:42:53;9.88;;;7.28;;
46288;SDS011;63105;46.158;14.604;2023-02-28T05:45:18;12.23;;;7.43;;
46288;SDS011;63105;46.158;14.604;2023-02-28T05:47:43;12.10;;;7.20;;
46288;SDS011;63105;46.158;14.604;2023-02-28T05:50:09;11.60;;;7.10;;
46288;SDS011;63105;46.158;14.604;2023-02-28T05:52:35;10.88;;;7.00;;
46288;SDS011;63105;46.158;14.604;2023-02-28T05:55:00;9.73;;;7.00;;
46288;SDS011;63105;46.158;14.604;2023-02-28T05:57:26;9.60;;;6.97;;
46288;SDS011;63105;46.158;14.604;2023-02-28T05:59:51;11.77;;;7.28;;
46288;SDS011;63105;46.158;14.604;2023-02-28T06:02:16;14.15;;;8.35;;
46288;SDS011;63105;46.158;14.604;2023-02-28T06:04:42;14.63;;;8.60;;
46288;SDS011;63105;46.158;14.604;2023-02-28T06:07:08;13.00;;;8.25;;
46288;SDS011;63105;46.158;14.604;2023-02-28T06:09:33;11.27;;;7.75;;
46288;SDS011;63105;46.158;14.604;2023-02-28T06:11:59;10.25;;;7.45;;
46288;SDS011;63105;46.158;14.604;2023-02-28T06:14:24;11.32;;;8.25;;
46288;SDS011;63105;46.158;14.604;2023-02-28T06:16:50;12.23;;;7.60;;
46288;SDS011;63105;46.158;14.604;2023-02-28T06:19:15;12.10;;;7.70;;
46288;SDS011;63105;46.158;14.604;2023-02-28T06:21:41;11.02;;;7.43;;
46288;SDS011;63105;46.158;14.604;2023-02-28T06:24:06;12.13;;;7.57;;
46288;SDS011;63105;46.158;14.604;2023-02-28T06:26:31;11.18;;;7.18;;
46288;SDS011;63105;46.158;14.604;2023-02-28T06:28:57;11.95;;;7.40;;
46288;SDS011;63105;46.158;14.604;2023-02-28T06:31:22;11.50;;;7.47;;
46288;SDS011;63105;46.158;14.604;2023-02-28T06:33:48;13.57;;;8.15;;
46288;SDS011;63105;46.158;14.604;2023-02-28T06:36:14;11.32;;;7.80;;
46288;SDS011;63105;46.158;14.604;2023-02-28T06:38:40;11.60;;;7.78;;
46288;SDS011;63105;46.158;14.604;2023-02-28T06:41:06;12.00;;;8.27;;
46288;SDS011;63105;46.158;14.604;2023-02-28T06:43:34;12.25;;;8.38;;
46288;SDS011;63105;46.158;14.604;2023-02-28T06:46:00;12.68;;;8.38;;
46288;SDS011;63105;46.158;14.604;2023-02-28T06:48:26;12.45;;;8.52;;
46288;SDS011;63105;46.158;14.604;2023-02-28T06:50:51;11.70;;;8.40;;
46288;SDS011;63105;46.158;14.604;2023-02-28T06:53:16;11.25;;;8.00;;
46288;SDS011;63105;46.158;14.604;2023-02-28T06:55:42;11.95;;;8.38;;
46288;SDS011;63105;46.158;14.604;2023-02-28T06:58:07;12.45;;;8.10;;
46288;SDS011;63105;46.158;14.604;2023-02-28T07:00:44;13.57;;;8.77;;
46288;SDS011;63105;46.158;14.604;2023-02-28T07:03:10;10.93;;;7.60;;
46288;SDS011;63105;46.158;14.604;2023-02-28T07:05:35;14.50;;;9.52;;
46288;SDS011;63105;46.158;14.604;2023-02-28T07:08:01;14.32;;;8.95;;
46288;SDS011;63105;46.158;14.604;2023-02-28T07:10:26;12.52;;;8.02;;
46288;SDS011;63105;46.158;14.604;2023-02-28T07:12:52;14.50;;;10.02;;
46288;SDS011;63105;46.158;14.604;2023-02-28T07:15:17;13.25;;;8.65;;
46288;SDS011;63105;46.158;14.604;2023-02-28T07:17:42;12.23;;;8.23;;
46288;SDS011;63105;46.158;14.604;2023-02-28T07:20:08;12.95;;;8.77;;
46288;SDS011;63105;46.158;14.604;2023-02-28T07:22:33;12.10;;;8.25;;
46288;SDS011;63105;46.158;14.604;2023-02-28T07:24:58;11.50;;;8.02;;
46288;SDS011;63105;46.158;14.604;2023-02-28T07:27:23;12.15;;;8.45;;
46288;SDS011;63105;46.158;14.604;2023-02-28T07:29:50;13.38;;;9.07;;
46288;SDS011;63105;46.158;14.604;2023-02-28T07:32:15;14.82;;;8.55;;
46288;SDS011;63105;46.158;14.604;2023-02-28T07:34:41;15.02;;;9.52;;
46288;SDS011;63105;46.158;14.604;2023-02-28T07:37:06;12.90;;;8.43;;
46288;SDS011;63105;46.158;14.604;2023-02-28T07:39:31;13.75;;;9.10;;
46288;SDS011;63105;46.158;14.604;2023-02-28T07:41:56;14.43;;;9.10;;
46288;SDS011;63105;46.158;14.604;2023-02-28T07:44:22;13.65;;;8.88;;
46288;SDS011;63105;46.158;14.604;2023-02-28T07:46:47;12.93;;;8.80;;
46288;SDS011;63105;46.158;14.604;2023-02-28T07:49:12;13.85;;;8.70;;
46288;SDS011;63105;46.158;14.604;2023-02-28T07:51:37;13.18;;;9.20;;
46288;SDS011;63105;46.158;14.604;2023-02-28T07:54:03;12.25;;;8.60;;
46288;SDS011;63105;46.158;14.604;2023-02-28T07:56:28;12.40;;;8.52;;
46288;SDS011;63105;46.158;14.604;2023-02-28T07:58:53;11.70;;;8.32;;
46288;SDS011;63105;46.158;14.604;2023-02-28T08:01:19;12.13;;;8.43;;
46288;SDS011;63105;46.158;14.604;2023-02-28T08:03:44;15.02;;;8.48;;
46288;SDS011;63105;46.158;14.604;2023-02-28T08:06:15;15.18;;;9.10;;
46288;SDS011;63105;46.158;14.604;2023-02-28T08:08:41;14.02;;;9.38;;
46288;SDS011;63105;46.158;14.604;2023-02-28T08:11:06;13.88;;;8.55;;
46288;SDS011;63105;46.158;14.604;2023-02-28T08:13:31;14.27;;;8.90;;
46288;SDS011;63105;46.158;14.604;2023-02-28T08:15:56;11.95;;;8.38;;
46288;SDS011;63105;46.158;14.604;2023-02-28T08:18:22;12.77;;;8.48;;
46288;SDS011;63105;46.158;14.604;2023-02-28T08:20:47;12.98;;;9.48;;
46288;SDS011;63105;46.158;14.604;2023-02-28T08:23:13;15.10;;;9.65;;
46288;SDS011;63105;46.158;14.604;2023-02-28T08:25:38;15.57;;;9.45;;
46288;SDS011;63105;46.158;14.604;2023-02-28T08:28:03;14.98;;;9.70;;
46288;SDS011;63105;46.158;14.604;2023-02-28T08:30:29;14.20;;;9.60;;
46288;SDS011;63105;46.158;14.604;2023-02-28T08:32:54;14.90;;;9.35;;
46288;SDS011;63105;46.158;14.604;2023-02-28T08:35:20;14.52;;;10.35;;
46288;SDS011;63105;46.158;14.604;2023-02-28T08:37:47;14.68;;;10.13;;
46288;SDS011;63105;46.158;14.604;2023-02-28T08:40:12;14.98;;;9.55;;
46288;SDS011;63105;46.158;14.604;2023-02-28T08:42:42;15.48;;;10.20;;
46288;SDS011;63105;46.158;14.604;2023-02-28T08:45:08;16.25;;;9.75;;
46288;SDS011;63105;46.158;14.604;2023-02-28T08:47:33;14.15;;;9.50;;
46288;SDS011;63105;46.158;14.604;2023-02-28T08:49:58;13.57;;;9.32;;
46288;SDS011;63105;46.158;14.604;2023-02-28T08:52:23;13.02;;;9.27;;
46288;SDS011;63105;46.158;14.604;2023-02-28T08:54:49;12.95;;;8.98;;
46288;SDS011;63105;46.158;14.604;2023-02-28T08:57:14;14.20;;;9.43;;
46288;SDS011;63105;46.158;14.604;2023-02-28T08:59:39;14.70;;;9.38;;
46288;SDS011;63105;46.158;14.604;2023-02-28T09:02:04;13.02;;;8.98;;
46288;SDS011;63105;46.158;14.604;2023-02-28T09:04:30;14.43;;;9.07;;
46288;SDS011;63105;46.158;14.604;2023-02-28T09:06:57;14.15;;;8.73;;
46288;SDS011;63105;46.158;14.604;2023-02-28T09:09:23;13.60;;;9.00;;
46288;SDS011;63105;46.158;14.604;2023-02-28T09:11:48;12.32;;;8.23;;
46288;SDS011;63105;46.158;14.604;2023-02-28T09:14:13;12.70;;;8.98;;
46288;SDS011;63105;46.158;14.604;2023-02-28T09:16:38;15.25;;;10.05;;
46288;SDS011;63105;46.158;14.604;2023-02-28T09:19:04;12.73;;;9.15;;
46288;SDS011;63105;46.158;14.604;2023-02-28T09:21:29;12.68;;;8.70;;
46288;SDS011;63105;46.158;14.604;2023-02-28T09:23:54;12.77;;;8.10;;
46288;SDS011;63105;46.158;14.604;2023-02-28T09:26:23;16.48;;;10.43;;
46288;SDS011;63105;46.158;14.604;2023-02-28T09:28:49;15.35;;;10.20;;
46288;SDS011;63105;46.158;14.604;2023-02-28T09:31:22;12.88;;;9.20;;
46288;SDS011;63105;46.158;14.604;2023-02-28T09:33:48;14.40;;;10.00;;
46288;SDS011;63105;46.158;14.604;2023-02-28T09:36:14;13.32;;;9.40;;
46288;SDS011;63105;46.158;14.604;2023-02-28T09:38:39;12.93;;;8.38;;
46288;SDS011;63105;46.158;14.604;2023-02-28T09:41:24;10.68;;;7.57;;
46288;SDS011;63105;46.158;14.604;2023-02-28T09:43:55;12.10;;;8.13;;
46288;SDS011;63105;46.158;14.604;2023-02-28T09:48:46;12.38;;;8.57;;
46288;SDS011;63105;46.158;14.604;2023-02-28T09:53:50;12.65;;;8.55;;
46288;SDS011;63105;46.158;14.604;2023-02-28T09:56:18;12.30;;;8.30;;
46288;SDS011;63105;46.158;14.604;2023-02-28T09:58:53;11.57;;;8.07;;
46288;SDS011;63105;46.158;14.604;2023-02-28T10:04:16;12.50;;;8.30;;
46288;SDS011;63105;46.158;14.604;2023-02-28T10:11:41;12.63;;;8.00;;
46288;SDS011;63105;46.158;14.604;2023-02-28T10:14:21;12.90;;;8.35;;
46288;SDS011;63105;46.158;14.604;2023-02-28T10:16:50;13.35;;;8.82;;
46288;SDS011;63105;46.158;14.604;2023-02-28T10:24:27;14.00;;;8.60;;
46288;SDS011;63105;46.158;14.604;2023-02-28T10:26:56;13.02;;;8.60;;
46288;SDS011;63105;46.158;14.604;2023-02-28T10:29:23;13.15;;;9.35;;
46288;SDS011;63105;46.158;14.604;2023-02-28T10:31:49;15.20;;;9.63;;
46288;SDS011;63105;46.158;14.604;2023-02-28T10:34:14;15.63;;;10.18;;
46288;SDS011;63105;46.158;14.604;2023-02-28T10:36:39;14.98;;;10.30;;
46288;SDS011;63105;46.158;14.604;2023-02-28T10:41:49;14.52;;;9.90;;
46288;SDS011;63105;46.158;14.604;2023-02-28T10:44:18;13.95;;;9.88;;
46288;SDS011;63105;46.158;14.604;2023-02-28T10:46:44;14.77;;;10.32;;
46288;SDS011;63105;46.158;14.604;2023-02-28T10:49:14;20.02;;;13.23;;
46288;SDS011;63105;46.158;14.604;2023-02-28T10:51:41;17.83;;;11.18;;
46288;SDS011;63105;46.158;14.604;2023-02-28T10:54:14;18.40;;;12.73;;
46288;SDS011;63105;46.158;14.604;2023-02-28T10:56:40;17.15;;;11.43;;
46288;SDS011;63105;46.158;14.604;2023-02-28T11:03:58;16.17;;;11.35;;
46288;SDS011;63105;46.158;14.604;2023-02-28T11:06:33;15.02;;;10.65;;
46288;SDS011;63105;46.158;14.604;2023-02-28T11:09:00;16.17;;;10.65;;
46288;SDS011;63105;46.158;14.604;2023-02-28T11:11:26;16.05;;;10.82;;
46288;SDS011;63105;46.158;14.604;2023-02-28T11:13:53;15.98;;;10.73;;
46288;SDS011;63105;46.158;14.604;2023-02-28T11:16:19;16.25;;;10.82;;
46288;SDS011;63105;46.158;14.604;2023-02-28T11:23:49;14.43;;;9.85;;
46288;SDS011;63105;46.158;14.604;2023-02-28T11:26:15;16.35;;;10.90;;
46288;SDS011;63105;46.158;14.604;2023-02-28T11:28:41;17.55;;;11.02;;
46288;SDS011;63105;46.158;14.604;2023-02-28T11:33:43;15.17;;;9.90;;
46288;SDS011;63105;46.158;14.604;2023-02-28T11:36:26;18.00;;;10.80;;
46288;SDS011;63105;46.158;14.604;2023-02-28T11:38:53;18.73;;;11.20;;
46288;SDS011;63105;46.158;14.604;2023-02-28T11:41:26;17.20;;;10.90;;
46288;SDS011;63105;46.158;14.604;2023-02-28T11:51:16;18.15;;;11.63;;
46288;SDS011;63105;46.158;14.604;2023-02-28T11:56:33;18.08;;;12.40;;
46288;SDS011;63105;46.158;14.604;2023-02-28T12:01:40;17.63;;;11.38;;
46288;SDS011;63105;46.158;14.604;2023-02-28T12:04:13;17.70;;;11.77;;
46288;SDS011;63105;46.158;14.604;2023-02-28T12:06:48;19.88;;;11.77;;
46288;SDS011;63105;46.158;14.604;2023-02-28T12:12:05;16.35;;;10.85;;
46288;SDS011;63105;46.158;14.604;2023-02-28T12:20:05;15.98;;;10.30;;
46288;SDS011;63105;46.158;14.604;2023-02-28T12:27:46;16.58;;;10.80;;
46288;SDS011;63105;46.158;14.604;2023-02-28T12:30:20;16.73;;;10.40;;
46288;SDS011;63105;46.158;14.604;2023-02-28T12:32:48;16.63;;;10.45;;
46288;SDS011;63105;46.158;14.604;2023-02-28T12:35:17;13.20;;;9.30;;
46288;SDS011;63105;46.158;14.604;2023-02-28T12:38:04;14.57;;;10.20;;
46288;SDS011;63105;46.158;14.604;2023-02-28T12:40:40;15.68;;;10.05;;
46288;SDS011;63105;46.158;14.604;2023-02-28T12:43:07;14.63;;;9.68;;
46288;SDS011;63105;46.158;14.604;2023-02-28T12:45:53;14.52;;;10.00;;
46288;SDS011;63105;46.158;14.604;2023-02-28T12:48:37;13.90;;;9.85;;
46288;SDS011;63105;46.158;14.604;2023-02-28T12:51:04;16.30;;;10.85;;
46288;SDS011;63105;46.158;14.604;2023-02-28T12:56:19;14.30;;;9.00;;
46288;SDS011;63105;46.158;14.604;2023-02-28T12:58:58;14.07;;;9.30;;
46288;SDS011;63105;46.158;14.604;2023-02-28T13:06:45;14.88;;;9.52;;
46288;SDS011;63105;46.158;14.604;2023-02-28T13:09:16;13.35;;;9.48;;
46288;SDS011;63105;46.158;14.604;2023-02-28T13:14:41;14.52;;;9.90;;
46288;SDS011;63105;46.158;14.604;2023-02-28T13:22:36;14.05;;;9.55;;
46288;SDS011;63105;46.158;14.604;2023-02-28T13:27:37;13.95;;;9.07;;
46288;SDS011;63105;46.158;14.604;2023-02-28T13:32:51;13.85;;;10.75;;
46288;SDS011;63105;46.158;14.604;2023-02-28T13:35:37;13.93;;;9.47;;
46288;SDS011;63105;46.158;14.604;2023-02-28T13:38:12;13.20;;;9.30;;
46288;SDS011;63105;46.158;14.604;2023-02-28T13:40:39;15.00;;;10.23;;
46288;SDS011;63105;46.158;14.604;2023-02-28T13:43:07;13.05;;;9.57;;
46288;SDS011;63105;46.158;14.604;2023-02-28T13:45:32;14.52;;;10.35;;
46288;SDS011;63105;46.158;14.604;2023-02-28T13:48:04;13.38;;;8.88;;
46288;SDS011;63105;46.158;14.604;2023-02-28T13:50:31;12.80;;;8.95;;
46288;SDS011;63105;46.158;14.604;2023-02-28T14:06:35;14.55;;;9.63;;
46288;SDS011;63105;46.158;14.604;2023-02-28T14:09:49;14.30;;;9.68;;
46288;SDS011;63105;46.158;14.604;2023-02-28T14:11:48;15.77;;;10.23;;
46288;SDS011;63105;46.158;14.604;2023-02-28T14:14:59;14.18;;;9.75;;
46288;SDS011;63105;46.158;14.604;2023-02-28T14:16:59;14.13;;;9.43;;
46288;SDS011;63105;46.158;14.604;2023-02-28T14:19:27;14.57;;;9.93;;
46288;SDS011;63105;46.158;14.604;2023-02-28T14:22:03;13.43;;;9.75;;
46288;SDS011;63105;46.158;14.604;2023-02-28T14:25:17;14.65;;;10.32;;
46288;SDS011;63105;46.158;14.604;2023-02-28T14:30:03;14.20;;;9.98;;
46288;SDS011;63105;46.158;14.604;2023-02-28T14:32:41;15.40;;;10.63;;
46288;SDS011;63105;46.158;14.604;2023-02-28T14:37:52;14.73;;;10.00;;
46288;SDS011;63105;46.158;14.604;2023-02-28T14:40:26;15.65;;;10.65;;
46288;SDS011;63105;46.158;14.604;2023-02-28T14:42:59;14.70;;;10.35;;
46288;SDS011;63105;46.158;14.604;2023-02-28T14:45:25;14.75;;;9.63;;
46288;SDS011;63105;46.158;14.604;2023-02-28T14:47:52;12.95;;;9.48;;
46288;SDS011;63105;46.158;14.604;2023-02-28T14:50:22;13.30;;;9.25;;
46288;SDS011;63105;46.158;14.604;2023-02-28T14:52:50;14.82;;;9.20;;
46288;SDS011;63105;46.158;14.604;2023-02-28T14:55:17;13.25;;;9.10;;
46288;SDS011;63105;46.158;14.604;2023-02-28T14:57:54;15.25;;;10.70;;
46288;SDS011;63105;46.158;14.604;2023-02-28T15:00:21;13.02;;;9.27;;
46288;SDS011;63105;46.158;14.604;2023-02-28T15:02:47;15.00;;;10.05;;
46288;SDS011;63105;46.158;14.604;2023-02-28T15:07:37;14.13;;;10.32;;
46288;SDS011;63105;46.158;14.604;2023-02-28T15:10:07;14.77;;;10.23;;
46288;SDS011;63105;46.158;14.604;2023-02-28T15:12:32;16.42;;;10.98;;
46288;SDS011;63105;46.158;14.604;2023-02-28T15:14:59;16.05;;;10.63;;
46288;SDS011;63105;46.158;14.604;2023-02-28T15:17:24;14.23;;;9.95;;
46288;SDS011;63105;46.158;14.604;2023-02-28T15:19:50;16.13;;;10.88;;
46288;SDS011;63105;46.158;14.604;2023-02-28T15:22:18;15.80;;;10.85;;
46288;SDS011;63105;46.158;14.604;2023-02-28T15:24:46;15.63;;;10.98;;
46288;SDS011;63105;46.158;14.604;2023-02-28T15:27:14;14.75;;;10.23;;
46288;SDS011;63105;46.158;14.604;2023-02-28T15:29:44;16.83;;;11.35;;
46288;SDS011;63105;46.158;14.604;2023-02-28T15:32:23;16.52;;;11.05;;
46288;SDS011;63105;46.158;14.604;2023-02-28T15:34:48;14.77;;;10.40;;
46288;SDS011;63105;46.158;14.604;2023-02-28T15:39:51;17.58;;;11.23;;
46288;SDS011;63105;46.158;14.604;2023-02-28T15:42:22;17.15;;;11.57;;
46288;SDS011;63105;46.158;14.604;2023-02-28T15:44:47;15.73;;;10.90;;
46288;SDS011;63105;46.158;14.604;2023-02-28T15:47:23;17.20;;;11.82;;
46288;SDS011;63105;46.158;14.604;2023-02-28T15:49:53;17.20;;;11.77;;
46288;SDS011;63105;46.158;14.604;2023-02-28T15:52:21;17.52;;;11.77;;
46288;SDS011;63105;46.158;14.604;2023-02-28T15:54:48;16.15;;;11.05;;
46288;SDS011;63105;46.158;14.604;2023-02-28T15:57:15;18.98;;;11.60;;
46288;SDS011;63105;46.158;14.604;2023-02-28T15:59:45;16.48;;;11.32;;
46288;SDS011;63105;46.158;14.604;2023-02-28T16:02:18;16.30;;;11.57;;
46288;SDS011;63105;46.158;14.604;2023-02-28T16:05:01;18.58;;;11.38;;
46288;SDS011;63105;46.158;14.604;2023-02-28T16:07:27;17.42;;;11.73;;
46288;SDS011;63105;46.158;14.604;2023-02-28T16:09:52;19.90;;;12.45;;
46288;SDS011;63105;46.158;14.604;2023-02-28T16:12:18;19.90;;;12.73;;
46288;SDS011;63105;46.158;14.604;2023-02-28T16:14:44;18.95;;;12.27;;
46288;SDS011;63105;46.158;14.604;2023-02-28T16:17:20;24.00;;;13.90;;
46288;SDS011;63105;46.158;14.604;2023-02-28T16:19:46;23.88;;;14.85;;
46288;SDS011;63105;46.158;14.604;2023-02-28T16:22:12;24.38;;;14.43;;
46288;SDS011;63105;46.158;14.604;2023-02-28T16:24:37;22.65;;;13.90;;
46288;SDS011;63105;46.158;14.604;2023-02-28T16:27:03;23.27;;;13.60;;
46288;SDS011;63105;46.158;14.604;2023-02-28T16:29:30;18.60;;;12.45;;
46288;SDS011;63105;46.158;14.604;2023-02-28T16:31:56;20.50;;;13.38;;
46288;SDS011;63105;46.158;14.604;2023-02-28T16:34:21;20.63;;;13.18;;
46288;SDS011;63105;46.158;14.604;2023-02-28T16:36:47;20.65;;;13.15;;
46288;SDS011;63105;46.158;14.604;2023-02-28T16:39:13;20.58;;;13.60;;
46288;SDS011;63105;46.158;14.604;2023-02-28T16:41:38;19.27;;;12.65;;
46288;SDS011;63105;46.158;14.604;2023-02-28T16:44:08;18.80;;;12.73;;
46288;SDS011;63105;46.158;14.604;2023-02-28T16:46:34;18.55;;;12.93;;